Lyttelton, South Africa
Current Conditions -  °F | °C
As of 8:00 PM on Tuesday 21 Oct 2014 (Local Time) from FALA Reporting Station
Scattered Clouds Scattered Clouds  
Wind Chill: 66°   Ceiling: Unl
Heat Index: 66°   Visibility: 6mi
Dew Point: 52°   Wind: 14mph
Humidity: 60%   Direction: 90°E
Pressure: 30.24"   Gusts: NA
Location:  25.83°S, 28.22°E
Report Text: FALA 211800Z 09012KT 9999 SCT035 19/11 Q1024 RETSRA NOSIG
Loading
Personal Weather Stations






























Interactive Weather Map
Tropical Storm Tracking
New forecast layout! Learn more

10-Day Weather Forecast

Advertisements
Track Severe Weather on mobile